Time;durP1;ratioP1;P1;durP2;ratioP2;P2;SDS_P1;SDS_P2;PMS_P1;PMS_P2;Temp;Humidity;BMP_temperature;BMP_pressure;BME280_temperature;BME280_humidity;BME280_pressure;Samples;Min_cycle;Max_cycle;Signal;HPM_P1;HPM_P2
2020/12/09 00:01:34;;;;;;;51.65;32.24;;;4.20;99.90;;;9.89;84.32;100699.42;1783742;70;24554;-79
2020/12/09 00:03:50;;;;;;;48.80;33.31;;;4.20;99.90;;;9.63;84.49;100700.84;1792931;70;24439;-79
2020/12/09 00:06:06;;;;;;;50.70;32.69;;;4.20;99.90;;;9.65;85.51;100701.73;1786344;71;24888;-79
2020/12/09 00:08:22;;;;;;;50.46;32.77;;;4.20;99.90;;;9.84;85.73;100710.20;1783186;72;24917;-79
2020/12/09 00:10:38;;;;;;;53.55;34.29;;;4.20;99.90;;;9.88;85.81;100707.21;1792153;70;24420;-79
2020/12/09 00:12:55;;;;;;;49.66;32.63;;;4.20;99.90;;;9.92;85.48;100712.45;1787346;70;24409;-79
2020/12/09 00:15:12;;;;;;;50.25;33.70;;;4.20;99.90;;;10.06;85.88;100710.88;1796867;70;24444;-79
2020/12/09 00:17:29;;;;;;;50.59;33.41;;;4.20;99.90;;;10.06;85.01;100706.97;1798817;71;24418;-81
2020/12/09 00:19:45;;;;;;;51.25;33.59;;;4.20;99.90;;;10.03;85.09;100717.34;1782653;71;24441;-79
2020/12/09 00:22:03;;;;;;;52.64;33.89;;;4.20;99.90;;;10.02;84.81;100719.94;1789522;71;24926;-79
2020/12/09 00:24:20;;;;;;;48.69;34.19;;;4.20;99.90;;;10.09;84.72;100725.24;1790151;71;24505;-79
2020/12/09 00:26:36;;;;;;;51.69;33.61;;;4.20;99.90;;;10.02;85.13;100727.28;1800360;70;24426;-79
2020/12/09 00:28:58;;;;;;;50.80;33.37;;;4.20;99.90;;;10.09;84.89;100724.36;1780253;71;24949;-80
2020/12/09 00:31:16;;;;;;;51.26;33.14;;;4.20;99.90;;;10.04;84.66;100728.59;1786820;71;24454;-81
2020/12/09 00:33:32;;;;;;;46.60;32.97;;;4.20;99.90;;;10.02;84.60;100735.55;1796522;71;24494;-79
2020/12/09 00:35:48;;;;;;;47.96;31.89;;;4.20;99.90;;;10.05;84.58;100736.42;1797774;71;24501;-79
2020/12/09 00:38:06;;;;;;;49.43;32.74;;;4.30;99.90;;;10.12;84.83;100722.67;1808324;71;24821;-80
2020/12/09 00:40:26;;;;;;;48.13;33.31;;;4.20;99.90;;;10.25;85.05;100725.84;1793468;71;24920;-82
2020/12/09 00:42:42;;;;;;;50.23;34.34;;;4.30;99.90;;;10.18;84.24;100724.02;1800812;71;24508;-80
2020/12/09 00:44:57;;;;;;;49.73;32.88;;;4.30;99.90;;;10.02;84.41;100725.98;1805541;71;24904;-80
2020/12/09 00:47:13;;;;;;;49.93;32.99;;;4.20;99.90;;;9.94;84.96;100725.48;1787604;71;24532;-79
2020/12/09 00:49:31;;;;;;;50.50;33.62;;;4.20;99.90;;;10.08;84.77;100724.81;1782919;71;24875;-81
2020/12/09 00:51:47;;;;;;;50.90;33.70;;;4.20;99.90;;;10.21;84.34;100725.80;1799134;71;24448;-79
2020/12/09 00:54:05;;;;;;;53.49;34.92;;;4.30;99.90;;;10.17;84.74;100731.41;1797913;71;24345;-79
2020/12/09 00:56:22;;;;;;;52.09;34.45;;;4.20;99.90;;;10.27;85.00;100722.84;1784088;71;24946;-81
2020/12/09 00:58:39;;;;;;;49.35;32.95;;;4.30;99.90;;;10.25;84.40;100725.84;1757350;71;24907;-81
2020/12/09 01:00:56;;;;;;;53.06;35.14;;;4.30;99.90;;;10.41;84.46;100735.55;1772376;71;24373;-81
2020/12/09 01:03:13;;;;;;;49.72;33.87;;;4.30;99.90;;;10.28;83.92;100725.88;1800608;70;24673;-81
2020/12/09 01:05:30;;;;;;;52.43;33.79;;;4.30;99.90;;;10.28;84.38;100727.59;1798052;71;24415;-80
2020/12/09 01:07:46;;;;;;;50.29;32.48;;;4.30;99.90;;;10.26;83.92;100724.98;1813193;69;24435;-80
2020/12/09 01:10:02;;;;;;;50.23;32.97;;;4.30;99.90;;;10.24;84.03;100726.68;1810584;71;24570;-81
2020/12/09 01:12:18;;;;;;;47.53;32.51;;;4.30;99.90;;;10.10;84.66;100729.58;1763536;71;24514;-79
2020/12/09 01:14:34;;;;;;;46.51;31.95;;;4.30;99.90;;;10.17;84.78;100726.20;1781320;71;24435;-78
2020/12/09 01:16:55;;;;;;;47.34;31.21;;;4.30;99.90;;;10.10;83.70;100732.18;1786361;71;24422;-80
2020/12/09 01:19:12;;;;;;;51.68;34.49;;;4.30;99.90;;;10.16;84.10;100738.73;1782870;71;24351;-81
2020/12/09 01:21:32;;;;;;;49.37;33.09;;;4.20;99.90;;;10.23;84.67;100734.06;1786689;71;24457;-79
2020/12/09 01:23:49;;;;;;;51.18;33.90;;;4.20;99.90;;;10.29;84.21;100739.31;1776629;72;24401;-79
2020/12/09 01:26:12;;;;;;;49.90;34.31;;;4.20;99.90;;;10.21;84.36;100752.67;1776714;72;24484;-79
2020/12/09 01:28:29;;;;;;;47.97;33.73;;;4.20;99.90;;;10.38;84.50;100743.75;1778412;72;24413;-79
2020/12/09 01:30:45;;;;;;;48.40;32.54;;;4.20;99.90;;;10.40;83.48;100746.80;1784981;71;24492;-79
2020/12/09 01:33:02;;;;;;;49.16;32.89;;;4.20;99.90;;;10.13;83.20;100749.12;1800756;71;24500;-79
2020/12/09 01:35:18;;;;;;;52.48;33.88;;;4.20;99.90;;;10.04;83.67;100754.20;1790933;71;24420;-78
2020/12/09 01:37:34;;;;;;;51.75;33.07;;;4.20;99.90;;;10.10;84.23;100762.09;1791152;70;24566;-80
2020/12/09 01:39:51;;;;;;;51.31;34.15;;;4.20;99.90;;;10.10;83.76;100763.84;1814144;70;24446;-80
2020/12/09 01:42:07;;;;;;;51.55;33.26;;;4.20;99.90;;;10.07;84.08;100759.47;1798573;71;24434;-80
2020/12/09 01:44:24;;;;;;;52.81;34.26;;;4.20;99.90;;;10.12;84.33;100756.48;1788850;71;24960;-79
2020/12/09 01:46:42;;;;;;;47.38;32.68;;;4.20;99.90;;;10.15;84.64;100756.94;1798659;71;24431;-79
2020/12/09 01:49:00;;;;;;;49.71;32.53;;;4.20;99.90;;;10.29;84.12;100765.80;1786620;71;24464;-80
2020/12/09 01:51:20;;;;;;;51.55;33.77;;;4.20;99.90;;;9.98;83.46;100764.54;1795129;71;24400;-79
2020/12/09 01:53:38;;;;;;;54.90;34.30;;;4.20;99.90;;;10.01;84.32;100763.27;1783675;71;24453;-80
2020/12/09 02:10:07;;;;;;;57.14;37.25;;;4.20;99.90;;;10.10;85.31;100770.36;1699641;74;32586;-79
2020/12/09 02:12:23;;;;;;;56.36;36.33;;;5.00;99.90;;;9.99;85.15;100770.17;1667238;75;24491;-80
2020/12/09 02:14:39;;;;;;;52.96;34.30;;;4.90;99.90;;;10.03;85.92;100773.27;1665428;76;24488;-80
2020/12/09 02:16:58;;;;;;;52.80;33.24;;;4.80;99.90;;;10.19;85.48;100770.44;1691485;75;24921;-79
2020/12/09 02:19:14;;;;;;;50.42;33.08;;;4.70;99.90;;;10.19;85.09;100765.23;1673833;75;25017;-79
2020/12/09 02:21:35;;;;;;;49.49;33.50;;;4.60;99.90;;;10.02;85.29;100770.20;1678769;76;24555;-79
2020/12/09 02:23:51;;;;;;;49.41;32.98;;;4.60;99.90;;;10.06;85.62;100756.81;1662309;76;25859;-80
2020/12/09 02:26:07;;;;;;;51.03;32.78;;;4.50;99.90;;;10.15;85.51;100764.33;1659932;76;24492;-80
2020/12/09 02:28:23;;;;;;;50.00;33.42;;;4.50;99.90;;;10.10;85.30;100763.40;1674124;76;24487;-79
2020/12/09 02:30:40;;;;;;;51.32;33.98;;;4.50;99.90;;;10.17;85.64;100770.84;1664739;76;24506;-79
2020/12/09 02:32:59;;;;;;;48.39;33.09;;;4.50;99.90;;;10.22;85.50;100768.75;1658230;75;24899;-79
2020/12/09 02:41:38;;;;;;;56.03;35.84;;;4.50;99.90;;;10.25;85.18;100766.60;1784439;71;33075;-80
2020/12/09 02:43:54;;;;;;;52.00;35.19;;;4.70;99.90;;;10.02;85.29;100770.20;1752632;73;24419;-80
2020/12/09 02:46:10;;;;;;;49.69;33.88;;;4.60;99.90;;;9.91;86.49;100757.95;1751190;73;25000;-80
2020/12/09 02:48:29;;;;;;;51.33;35.54;;;4.60;99.90;;;10.03;86.26;100761.98;1769323;72;24456;-79
2020/12/09 02:50:45;;;;;;;51.85;33.61;;;4.50;99.90;;;9.97;85.84;100764.11;1757413;72;24455;-79
2020/12/09 02:53:02;;;;;;;53.54;35.57;;;4.50;99.90;;;9.85;85.81;100768.26;1730098;73;24499;-80
2020/12/09 02:55:19;;;;;;;51.18;33.31;;;4.40;99.90;;;10.02;86.70;100766.30;1711757;73;24504;-80
2020/12/09 02:57:39;;;;;;;50.42;33.17;;;4.40;99.90;;;9.91;85.95;100766.61;1750393;72;24485;-78
2020/12/09 02:59:55;;;;;;;48.59;32.00;;;4.40;99.90;;;9.69;86.51;100763.30;1755357;72;24478;-78
2020/12/09 03:02:10;;;;;;;48.64;32.48;;;4.40;99.90;;;9.67;87.14;100765.03;1719178;74;24472;-80
2020/12/09 03:04:26;;;;;;;49.84;32.58;;;4.40;99.90;;;9.83;87.41;100769.99;1752824;73;24482;-80
2020/12/09 03:06:44;;;;;;;46.00;32.75;;;4.40;99.90;;;9.86;86.96;100762.23;1766645;72;24417;-78
2020/12/09 03:09:00;;;;;;;50.74;34.49;;;4.40;99.90;;;9.84;87.11;100770.02;1749297;73;24467;-80
2020/12/09 03:11:15;;;;;;;51.01;34.00;;;4.40;99.90;;;9.90;86.83;100763.58;1749550;73;24476;-79
2020/12/09 03:13:33;;;;;;;45.90;30.30;;;4.40;99.90;;;9.82;86.51;100769.11;1753868;72;24479;-79
2020/12/09 03:15:49;;;;;;;50.80;35.06;;;4.40;99.90;;;9.68;86.78;100768.06;1751662;72;24441;-79
2020/12/09 03:18:07;;;;;;;54.08;35.54;;;4.40;99.90;;;9.86;87.72;100770.91;1751045;73;24919;-79
2020/12/09 03:20:23;;;;;;;56.88;36.08;;;4.40;99.90;;;9.80;87.73;100779.06;1746232;73;24482;-80
2020/12/09 03:22:40;;;;;;;50.82;36.11;;;4.40;99.90;;;9.89;87.82;100771.36;1754091;73;24466;-79
2020/12/09 03:24:57;;;;;;;56.34;36.91;;;4.40;99.90;;;10.01;87.31;100784.08;1751295;73;24409;-80
2020/12/09 03:27:13;;;;;;;50.20;34.23;;;4.40;99.90;;;9.97;87.78;100784.91;1745962;73;24573;-79
2020/12/09 03:29:30;;;;;;;48.93;30.94;;;4.40;99.90;;;9.84;86.83;100779.11;1746130;73;24518;-80
2020/12/09 03:31:47;;;;;;;55.23;34.67;;;4.40;99.90;;;9.73;87.00;100779.82;1751756;73;24433;-78
2020/12/09 03:34:03;;;;;;;48.47;32.95;;;4.40;99.90;;;9.85;87.33;100782.56;1751271;73;24430;-79
2020/12/09 03:36:22;;;;;;;53.41;35.57;;;4.40;99.90;;;9.65;87.72;100783.63;1752513;73;24450;-79
2020/12/09 03:38:39;;;;;;;54.09;36.39;;;4.40;99.90;;;9.99;88.38;100787.53;1759226;72;24444;-79
2020/12/09 03:40:58;;;;;;;51.80;35.74;;;4.40;99.90;;;10.15;87.92;100792.06;1755143;73;24690;-79
2020/12/09 03:43:14;;;;;;;54.87;35.84;;;4.40;99.90;;;10.13;87.50;100797.25;1755431;73;24466;-80
2020/12/09 03:45:31;;;;;;;54.82;36.36;;;4.40;99.90;;;10.08;86.54;100797.66;1759008;72;24463;-81
2020/12/09 03:47:47;;;;;;;55.86;36.95;;;4.40;99.90;;;10.19;87.39;100792.56;1774657;72;24515;-80
2020/12/09 03:50:04;;;;;;;53.78;36.77;;;4.40;99.90;;;10.08;87.19;100795.05;1762804;72;24410;-81
2020/12/09 03:52:20;;;;;;;52.13;36.08;;;4.50;99.90;;;10.16;86.40;100795.98;1759938;73;24894;-79
2020/12/09 03:54:36;;;;;;;53.09;36.28;;;4.40;99.90;;;10.15;87.17;100803.36;1754868;72;24999;-81
2020/12/09 03:56:52;;;;;;;55.79;37.87;;;4.40;99.90;;;10.02;86.61;100800.58;1763791;73;24422;-81
2020/12/09 03:59:08;;;;;;;53.79;36.79;;;4.40;99.90;;;9.90;86.98;100804.30;1754311;73;24443;-79
2020/12/09 04:17:37;;;;;;;46.75;33.62;;;5.10;99.90;;;10.14;86.81;100800.73;1733852;72;25203;-82
2020/12/09 04:19:54;;;;;;;47.48;33.63;;;5.00;99.90;;;9.88;87.11;100806.03;1710630;74;24469;-79
2020/12/09 04:22:11;;;;;;;46.96;34.74;;;4.80;99.90;;;9.85;86.79;100804.25;1718312;74;24661;-80
2020/12/09 04:24:28;;;;;;;48.82;33.56;;;4.70;99.90;;;9.60;87.58;100809.98;1722791;73;24500;-79
2020/12/09 04:26:44;;;;;;;48.10;34.57;;;4.60;99.90;;;9.68;87.76;100808.78;1699402;74;25072;-79
2020/12/09 04:29:00;;;;;;;49.80;34.64;;;4.50;99.90;;;9.65;87.80;100811.34;1701527;74;24921;-81
2020/12/09 04:31:16;;;;;;;49.52;35.20;;;4.50;99.90;;;9.70;87.78;100811.88;1709528;75;24469;-80
2020/12/09 04:33:35;;;;;;;48.62;34.14;;;4.40;99.90;;;9.71;87.76;100808.82;1705619;74;24488;-80
2020/12/09 04:35:51;;;;;;;47.90;34.70;;;4.40;99.90;;;9.78;87.35;100811.97;1704689;74;24524;-79
2020/12/09 04:38:15;;;;;;;51.77;34.50;;;4.30;99.90;;;9.66;87.42;100816.56;1716296;74;24460;-80
2020/12/09 04:40:32;;;;;;;51.14;35.74;;;4.30;99.90;;;9.72;87.09;100817.09;1718613;74;24457;-80
2020/12/09 04:43:00;;;;;;;52.89;36.83;;;4.30;99.90;;;9.71;87.40;100820.10;1713479;74;24932;-80
2020/12/09 04:45:18;;;;;;;54.07;36.90;;;4.20;99.90;;;9.71;87.24;100822.70;1715753;74;24483;-81
2020/12/09 04:47:42;;;;;;;52.93;35.92;;;4.20;99.90;;;9.72;87.20;100824.44;1719807;73;24571;-79
2020/12/09 04:50:11;;;;;;;55.84;35.80;;;4.20;99.90;;;9.68;87.07;100821.36;1709371;74;24421;-80
2020/12/09 04:52:50;;;;;;;53.99;36.29;;;4.10;99.90;;;9.56;87.08;100810.81;1705951;75;24447;-79
2020/12/09 04:55:10;;;;;;;52.35;34.54;;;4.10;99.90;;;9.57;87.06;100816.45;1705315;75;24433;-80
2020/12/09 04:57:43;;;;;;;53.09;36.18;;;4.00;99.90;;;9.54;87.05;100824.62;1712374;74;24496;-79
2020/12/09 05:00:06;;;;;;;52.01;34.43;;;4.00;99.90;;;9.65;86.94;100825.23;1722151;74;24886;-79
2020/12/09 05:02:26;;;;;;;53.04;35.28;;;3.90;99.90;;;9.81;86.83;100831.50;1707873;75;24984;-80
2020/12/09 05:04:42;;;;;;;52.07;35.44;;;3.90;99.90;;;9.69;86.35;100830.90;1707908;74;24534;-80
2020/12/09 05:07:01;;;;;;;60.96;37.55;;;3.80;99.90;;;9.59;86.31;100834.25;1707086;74;24914;-81
2020/12/09 05:09:19;;;;;;;56.27;36.60;;;3.80;99.90;;;9.69;86.70;100833.50;1724608;74;24944;-79
2020/12/09 05:11:37;;;;;;;56.32;37.49;;;3.80;99.90;;;9.84;86.34;100829.83;1703397;74;24967;-80
2020/12/09 05:13:57;;;;;;;60.20;39.09;;;3.80;99.90;;;9.89;86.20;100832.48;1719538;74;24453;-80
2020/12/09 05:16:20;;;;;;;61.75;38.95;;;3.80;99.90;;;9.88;84.94;100839.40;1744736;73;24452;-80
2020/12/09 05:18:45;;;;;;;59.99;38.00;;;3.80;99.90;;;9.91;85.86;100839.44;1728152;73;24464;-79
2020/12/09 05:21:15;;;;;;;57.82;37.39;;;3.80;99.90;;;9.86;85.25;100847.63;1717584;73;24559;-80
2020/12/09 05:23:35;;;;;;;61.65;37.60;;;3.80;99.90;;;9.87;85.41;100844.58;1719096;74;24474;-80
2020/12/09 05:25:53;;;;;;;58.30;38.08;;;3.90;99.90;;;9.70;85.17;100840.89;1719565;74;24483;-80
2020/12/09 05:28:09;;;;;;;56.95;37.48;;;3.90;99.90;;;9.55;86.07;100849.78;1692138;75;24444;-79
2020/12/09 05:30:51;;;;;;;56.20;37.38;;;3.90;99.90;;;9.45;86.07;100845.29;1708645;74;24543;-80
2020/12/09 05:33:08;;;;;;;60.59;37.42;;;3.90;99.90;;;9.42;86.21;100843.50;1707962;74;24461;-80
2020/12/09 05:35:24;;;;;;;55.51;36.63;;;3.80;99.90;;;9.22;85.79;100847.52;1711473;74;24506;-80
2020/12/09 05:37:39;;;;;;;55.37;35.20;;;3.70;99.90;;;9.00;85.34;100850.63;1728111;73;24475;-81
2020/12/09 05:39:59;;;;;;;53.10;34.93;;;3.60;99.90;;;8.78;85.28;100847.20;1703108;74;24520;-82
2020/12/09 05:42:18;;;;;;;53.55;34.43;;;3.60;99.90;;;8.67;85.83;100847.44;1706620;74;24921;-80
2020/12/09 05:44:34;;;;;;;54.42;35.78;;;3.40;99.90;;;8.45;85.26;100858.27;1685197;75;25004;-81
2020/12/09 05:46:58;;;;;;;54.53;35.67;;;3.30;99.90;;;8.35;85.97;100856.33;1719592;73;24926;-82
2020/12/09 05:49:26;;;;;;;53.94;35.45;;;3.20;99.90;;;8.35;86.41;100858.92;1735565;73;24563;-80
2020/12/09 05:51:43;;;;;;;58.81;36.55;;;3.00;99.90;;;8.29;86.19;100862.29;1722765;73;24518;-80
2020/12/09 05:53:59;;;;;;;59.63;36.93;;;2.90;99.90;;;8.19;86.01;100864.20;1715389;74;24458;-80
2020/12/09 05:56:18;;;;;;;59.19;36.18;;;2.80;99.90;;;8.07;86.07;100865.27;1721813;74;24445;-81
2020/12/09 05:58:34;;;;;;;61.30;38.26;;;2.70;99.90;;;7.93;85.80;100858.91;1723426;74;24444;-81
2020/12/09 06:01:10;;;;;;;60.15;36.64;;;2.60;99.90;;;7.90;85.48;100870.93;1702334;74;24451;-80
2020/12/09 06:03:27;;;;;;;63.22;37.27;;;2.60;99.90;;;7.83;85.50;100864.73;1707767;74;24496;-80
2020/12/09 06:05:43;;;;;;;61.49;37.08;;;2.50;99.90;;;7.84;85.58;100867.77;1706805;75;24432;-80
2020/12/09 06:07:59;;;;;;;64.76;38.17;;;2.40;99.90;;;7.78;85.59;100868.09;1717659;74;24494;-80
2020/12/09 06:10:18;;;;;;;68.11;40.61;;;2.40;99.90;;;7.73;85.41;100866.66;1709491;73;24493;-80
2020/12/09 06:12:56;;;;;;;72.11;41.42;;;2.30;99.90;;;7.76;86.12;100863.28;1734749;73;24941;-80
2020/12/09 06:15:15;;;;;;;84.02;43.30;;;2.20;99.90;;;7.90;86.37;100874.82;1716587;74;24449;-80
2020/12/09 06:17:31;;;;;;;83.57;42.85;;;2.30;99.90;;;8.08;86.73;100867.00;1714455;75;24598;-79
2020/12/09 06:19:49;;;;;;;87.74;45.42;;;2.30;99.90;;;8.13;85.91;100869.69;1701195;74;24540;-80
2020/12/09 06:22:08;;;;;;;108.43;49.75;;;2.40;99.90;;;8.20;86.05;100862.50;1715190;73;24883;-81
2020/12/09 06:24:29;;;;;;;99.80;46.78;;;2.50;99.90;;;8.11;86.06;100866.20;1712700;74;24431;-78
2020/12/09 06:26:50;;;;;;;107.83;48.56;;;2.60;99.90;;;7.91;86.42;100867.08;1705333;75;24495;-82
2020/12/09 06:29:07;;;;;;;100.04;46.98;;;2.60;99.90;;;8.26;86.77;100873.02;1708241;74;24791;-84
2020/12/09 06:31:24;;;;;;;110.50;49.11;;;2.70;99.90;;;8.11;86.20;100874.84;1709820;74;24503;-84
2020/12/09 06:33:44;;;;;;;95.28;46.12;;;2.70;99.90;;;7.99;87.10;100873.71;1706701;74;24548;-83
2020/12/09 06:36:24;;;;;;;102.27;47.86;;;2.80;99.90;;;7.89;86.71;100875.23;1712605;74;24894;-82
2020/12/09 06:38:41;;;;;;;99.23;45.20;;;2.80;99.90;;;8.01;87.47;100870.73;1713017;73;24422;-83
2020/12/09 06:41:15;;;;;;;141.77;45.28;;;2.80;99.90;;;8.04;86.50;100867.80;1708776;74;24434;-83
2020/12/09 06:43:31;;;;;;;257.89;52.40;;;2.80;99.90;;;7.90;87.62;100877.00;1711165;74;24572;-83
2020/12/09 06:45:50;;;;;;;178.83;47.84;;;2.80;99.90;;;7.75;87.05;100879.24;1716041;74;24445;-83
2020/12/09 06:51:41;;;;;;;174.94;45.91;;;2.70;99.90;;;7.97;87.40;100880.16;1873064;68;32423;-82
2020/12/09 06:54:15;;;;;;;150.17;43.24;;;2.70;99.90;;;7.80;88.11;100882.81;1793522;70;24469;-82
2020/12/09 06:56:35;;;;;;;138.13;41.54;;;2.70;99.90;;;7.61;88.44;100889.72;1794144;70;24458;-81
2020/12/09 06:58:51;;;;;;;120.26;34.70;;;2.60;99.90;;;7.68;88.61;100887.73;1796836;70;24446;-81
2020/12/09 07:01:09;;;;;;;209.32;44.32;;;2.60;99.90;;;7.33;88.15;100892.51;1823928;70;24405;-80
2020/12/09 07:03:38;;;;;;;191.04;41.09;;;2.50;99.90;;;7.17;89.67;100902.03;1812270;70;24549;-80
2020/12/09 07:05:50;;;;;;;179.98;40.92;;;2.50;99.90;;;7.20;89.82;100904.69;1805303;70;24423;-81
2020/12/09 07:08:13;;;;;;;153.78;38.99;;;2.40;99.90;;;6.92;89.77;100899.25;1811126;70;24840;-83
2020/12/09 07:10:35;;;;;;;89.92;27.90;;;2.30;99.90;;;6.89;90.05;100906.91;1799057;70;24417;-81
2020/12/09 07:13:07;;;;;;;113.23;29.60;;;2.30;99.90;;;6.54;90.26;100915.47;1805338;70;24666;-81
2020/12/09 07:15:23;;;;;;;151.94;36.55;;;2.10;99.90;;;6.33;90.83;100914.86;1798173;70;24477;-80
2020/12/09 07:17:43;;;;;;;143.71;35.47;;;2.00;99.90;;;6.57;91.16;100918.13;1801049;70;24466;-80
2020/12/09 07:20:20;;;;;;;122.70;33.93;;;1.90;99.90;;;6.29;90.66;100922.08;1807334;70;24433;-81
2020/12/09 07:22:38;;;;;;;109.13;29.77;;;1.90;99.90;;;6.24;90.69;100924.05;1813547;70;24445;-79
2020/12/09 07:24:57;;;;;;;143.11;37.83;;;1.80;99.90;;;6.00;90.77;100926.80;1813086;70;24584;-82
2020/12/09 07:27:13;;;;;;;91.23;31.90;;;1.70;99.90;;;6.15;92.04;100928.53;1799925;69;24891;-79
2020/12/09 07:29:33;;;;;;;103.37;36.42;;;1.60;99.90;;;6.38;92.86;100935.27;1811904;70;24368;-80
2020/12/09 07:31:50;;;;;;;122.66;36.80;;;1.60;99.90;;;6.34;91.90;100933.84;1805767;70;24408;-81
2020/12/09 07:34:08;;;;;;;61.17;23.40;;;1.60;99.90;;;6.34;90.93;100939.02;1798537;70;24549;-79
2020/12/09 07:36:24;;;;;;;120.06;37.29;;;1.60;99.90;;;5.87;91.08;100934.60;1805920;70;24466;-81
2020/12/09 07:38:48;;;;;;;103.19;36.56;;;1.50;99.90;;;5.98;92.41;100938.39;1806366;70;24920;-82
2020/12/09 07:41:05;;;;;;;84.62;33.65;;;1.40;99.90;;;5.96;91.55;100937.45;1813648;70;24483;-78
2020/12/09 07:43:22;;;;;;;91.25;36.94;;;1.40;99.90;;;5.85;91.94;100929.80;1803928;70;24467;-81
2020/12/09 07:45:44;;;;;;;114.86;36.80;;;1.40;99.90;;;6.11;92.31;100931.87;1797938;70;24451;-82
2020/12/09 07:48:08;;;;;;;107.24;37.99;;;1.40;99.90;;;6.05;91.87;100945.48;1817916;70;24434;-83
2020/12/09 07:50:34;;;;;;;64.56;26.65;;;1.40;99.90;;;6.41;92.58;100946.98;1815465;70;24563;-82
2020/12/09 07:52:50;;;;;;;80.92;36.47;;;1.40;99.90;;;6.05;91.46;100948.50;1812704;70;24524;-82
2020/12/09 07:55:15;;;;;;;86.81;37.33;;;1.40;99.90;;;6.03;92.03;100952.33;1805889;70;24870;-81
2020/12/09 07:57:38;;;;;;;71.49;35.38;;;1.40;99.90;;;5.92;92.26;100961.47;1809138;70;24410;-80
2020/12/09 08:00:03;;;;;;;62.56;32.13;;;1.30;99.90;;;5.93;91.93;100961.03;1802607;70;24922;-83
2020/12/09 08:02:23;;;;;;;72.09;35.61;;;1.30;99.90;;;5.81;91.88;100960.22;1802785;70;24835;-83
2020/12/09 08:04:44;;;;;;;64.38;32.06;;;1.30;99.90;;;5.83;91.78;100965.47;1806041;70;24501;-81
2020/12/09 08:10:33;;;;;;;64.81;30.01;;;1.20;99.90;;;5.90;91.17;100960.94;1778235;71;33014;-84
2020/12/09 08:12:50;;;;;;;77.93;32.10;;;1.20;99.90;;;5.88;91.42;100955.72;1759263;71;24573;-83
2020/12/09 08:15:12;;;;;;;73.47;37.17;;;1.20;99.90;;;5.72;91.94;100961.64;1750376;73;24489;-83
2020/12/09 08:17:38;;;;;;;59.43;30.86;;;1.10;99.90;;;5.74;92.04;100971.58;1726239;73;24901;-83
2020/12/09 08:20:05;;;;;;;78.80;36.59;;;1.10;99.90;;;5.80;91.61;100971.37;1737229;73;24438;-83
2020/12/09 08:22:22;;;;;;;56.95;29.12;;;1.20;99.90;;;5.97;92.03;100972.80;1725418;73;24480;-81
2020/12/09 08:24:38;;;;;;;69.97;35.87;;;1.20;99.90;;;5.85;91.16;100978.89;1687889;75;24546;-85
2020/12/09 08:26:56;;;;;;;86.61;34.43;;;1.20;99.90;;;6.07;92.30;100976.13;1745144;73;24904;-81
2020/12/09 08:29:20;;;;;;;72.33;35.40;;;1.20;99.90;;;5.96;91.00;100978.80;1734367;73;24611;-82
2020/12/09 08:31:39;;;;;;;62.08;32.11;;;1.30;99.90;;;6.20;91.71;100968.33;1727365;74;24941;-79
2020/12/09 08:33:56;;;;;;;84.29;38.90;;;1.30;99.90;;;6.00;90.37;100972.92;1731309;73;24957;-80
2020/12/09 08:36:18;;;;;;;67.71;37.03;;;1.30;99.90;;;6.12;91.06;100972.39;1732116;73;25162;-78
2020/12/09 08:38:38;;;;;;;81.63;37.90;;;1.30;99.90;;;6.32;90.97;100970.41;1731915;73;24574;-79
2020/12/09 08:40:57;;;;;;;42.17;22.73;;;1.40;99.90;;;6.22;90.93;100969.26;1726908;73;25167;-79
2020/12/09 08:43:13;;;;;;;78.90;36.60;;;1.40;99.90;;;5.85;90.58;100968.55;1728938;73;24633;-81
2020/12/09 08:48:22;;;;;;;65.62;34.65;;;1.40;99.90;;;6.33;90.46;100956.63;1737695;72;25220;-82
2020/12/09 08:50:41;;;;;;;66.65;36.47;;;1.30;99.90;;;6.06;91.18;100964.45;1722191;73;24472;-83
2020/12/09 08:52:59;;;;;;;66.69;35.93;;;1.40;99.90;;;6.29;91.46;100966.03;1697589;73;25945;-83
2020/12/09 08:55:16;;;;;;;61.37;33.36;;;1.40;99.90;;;6.26;91.48;100968.94;1717977;73;24481;-84
2020/12/09 08:57:32;;;;;;;63.79;33.06;;;1.40;99.90;;;6.10;91.34;100962.45;1724057;73;24484;-84
2020/12/09 08:59:49;;;;;;;62.56;31.91;;;1.40;99.90;;;6.12;91.52;100963.34;1717016;73;24510;-81
2020/12/09 09:02:06;;;;;;;65.58;36.62;;;1.40;99.90;;;5.94;91.77;100961.52;1722352;73;24431;-80
2020/12/09 09:04:27;;;;;;;82.03;38.93;;;1.40;99.90;;;6.18;93.20;100955.36;1716410;75;24485;-84
2020/12/09 09:06:47;;;;;;;69.90;35.03;;;1.40;99.90;;;6.26;92.07;100959.89;1716366;73;24578;-82
2020/12/09 09:09:06;;;;;;;62.89;35.45;;;1.50;99.90;;;6.08;91.46;100964.98;1721684;73;24484;-81
2020/12/09 09:11:31;;;;;;;72.80;35.84;;;1.40;99.90;;;6.28;91.65;100968.14;1724732;73;24489;-82
2020/12/09 09:13:47;;;;;;;65.56;34.40;;;1.50;99.90;;;6.36;91.67;100958.90;1715889;74;24402;-83
2020/12/09 09:16:10;;;;;;;65.61;35.50;;;1.40;99.90;;;6.23;90.74;100952.91;1720671;73;25091;-84
2020/12/09 09:18:26;;;;;;;71.98;38.98;;;1.50;99.90;;;6.25;91.63;100951.25;1723164;73;24579;-83
2020/12/09 09:20:47;;;;;;;69.73;37.57;;;1.50;99.90;;;6.49;91.75;100951.96;1720173;73;24717;-83
2020/12/09 09:23:06;;;;;;;74.39;36.47;;;1.50;99.90;;;6.48;90.84;100950.19;1716593;75;24522;-82
2020/12/09 09:25:26;;;;;;;71.07;36.63;;;1.60;99.90;;;6.34;91.05;100953.23;1716212;73;24538;-81
2020/12/09 09:27:42;;;;;;;62.73;35.64;;;1.60;99.90;;;6.18;91.88;100968.69;1717121;73;24535;-81
2020/12/09 09:29:59;;;;;;;66.40;36.81;;;1.60;99.90;;;6.21;91.77;100962.34;1716013;73;24539;-79
2020/12/09 09:32:15;;;;;;;67.50;37.08;;;1.60;99.90;;;6.56;91.96;100960.77;1724740;73;24508;-81
2020/12/09 09:34:32;;;;;;;79.69;40.60;;;1.60;99.90;;;6.68;91.22;100964.58;1716239;75;24449;-83
2020/12/09 09:36:48;;;;;;;65.26;34.56;;;1.60;99.90;;;6.73;91.62;100966.00;1720681;73;24452;-83
2020/12/09 09:39:08;;;;;;;70.24;35.40;;;1.70;99.90;;;6.45;90.64;100976.41;1718109;73;24504;-82
2020/12/09 09:41:24;;;;;;;64.39;35.15;;;1.70;99.90;;;6.25;91.16;100973.22;1717339;73;24925;-80
2020/12/09 09:43:42;;;;;;;74.80;37.84;;;1.70;99.90;;;6.28;91.72;100970.73;1691311;73;24989;-84
2020/12/09 09:46:03;;;;;;;71.10;38.98;;;1.70;99.90;;;6.44;91.81;100972.94;1717591;73;24528;-82
2020/12/09 09:48:23;;;;;;;70.30;37.90;;;1.70;99.90;;;6.61;92.08;100974.72;1715713;73;24576;-82
2020/12/09 09:50:39;;;;;;;66.79;37.52;;;1.70;99.90;;;6.23;91.87;100981.34;1711125;74;24907;-81
2020/12/09 09:53:03;;;;;;;68.71;37.01;;;1.70;99.90;;;6.29;91.84;100981.95;1704655;74;24522;-80
2020/12/09 09:55:19;;;;;;;69.53;35.91;;;1.60;99.90;;;6.36;91.91;100974.42;1708591;74;24901;-82
2020/12/09 09:57:36;;;;;;;65.23;34.30;;;1.60;99.90;;;6.24;91.79;100980.53;1705923;74;25002;-81
2020/12/09 09:59:56;;;;;;;60.15;33.52;;;1.60;99.90;;;6.39;91.55;100976.20;1706566;73;24600;-80
2020/12/09 10:02:14;;;;;;;55.47;28.00;;;1.60;99.90;;;6.24;91.00;100977.06;1712673;73;24856;-83
2020/12/09 10:04:32;;;;;;;63.10;31.43;;;1.60;99.90;;;5.96;91.86;100978.80;1702793;74;24864;-80
2020/12/09 10:06:50;;;;;;;65.62;35.20;;;1.60;99.90;;;6.01;92.10;100969.89;1705353;75;25361;-80
2020/12/09 10:09:11;;;;;;;62.84;33.31;;;1.50;99.90;;;6.09;92.38;100974.89;1705498;75;24543;-81
2020/12/09 10:11:27;;;;;;;85.54;34.33;;;1.50;99.90;;;6.19;91.83;100973.05;1708120;74;24532;-82
2020/12/09 10:13:44;;;;;;;63.91;31.88;;;1.50;99.90;;;6.14;91.52;100972.92;1706752;74;24545;-82
2020/12/09 10:16:01;;;;;;;62.56;31.33;;;1.50;99.90;;;6.20;91.62;100978.67;1704552;75;24490;-81
2020/12/09 10:18:18;;;;;;;58.67;30.87;;;1.50;99.90;;;5.95;91.83;100975.77;1713214;73;24581;-82
2020/12/09 10:20:39;;;;;;;61.43;32.44;;;1.50;99.90;;;6.09;91.76;100987.41;1706212;74;24504;-81
2020/12/09 10:22:57;;;;;;;57.50;31.45;;;1.50;99.90;;;6.14;91.62;100980.67;1704625;75;24687;-81